< < Back
Terminal Aerodrome Forecast


Current Version              Previous Versions:   1  2  3  4  5  6  7  8  9  

Terminal Aerodrome Forecast

151
FTUS42 KILM 241700
TAFFLO
TAF
KFLO 241739Z 2418/2518 10005KT P6SM SKC
     FM241900 14007KT P6SM SKC
     FM250800 00000KT P6SM BKN012
     FM251400 21011KT P6SM VCSH BKN035=



Latest METAR

464
SAUS70 KWBC 242300 RRH
MTRFLO
METAR KFLO 242253Z 17009KT 10SM CLR 23/08 A2999 RMK AO2 SLP154
T02330083


USA.gov is the U.S. government's official web portal to all federal, state and local government web resources and services.